sensor_id;sensor_type;location;lat;lon;timestamp;pressure;altitude;pressure_sealevel;temperature;humidity
10946;BME280;5525;42.648;23.368;2023-04-07T00:00:42;94399.34;;;2.40;76.81
10946;BME280;5525;42.648;23.368;2023-04-07T00:03:08;94407.75;;;2.52;76.10
10946;BME280;5525;42.648;23.368;2023-04-07T00:05:35;94409.19;;;2.39;76.42
10946;BME280;5525;42.648;23.368;2023-04-07T00:08:02;94404.97;;;2.33;76.05
10946;BME280;5525;42.648;23.368;2023-04-07T00:10:29;94410.56;;;2.37;75.29
10946;BME280;5525;42.648;23.368;2023-04-07T00:12:57;94411.06;;;2.39;75.48
10946;BME280;5525;42.648;23.368;2023-04-07T00:15:25;94412.03;;;2.48;74.10
10946;BME280;5525;42.648;23.368;2023-04-07T00:17:51;94405.06;;;2.57;72.36
10946;BME280;5525;42.648;23.368;2023-04-07T00:20:18;94408.78;;;2.56;72.64
10946;BME280;5525;42.648;23.368;2023-04-07T00:22:45;94406.44;;;2.49;73.67
10946;BME280;5525;42.648;23.368;2023-04-07T00:25:11;94401.31;;;2.58;71.90
10946;BME280;5525;42.648;23.368;2023-04-07T00:27:38;94400.81;;;2.51;72.92
10946;BME280;5525;42.648;23.368;2023-04-07T00:30:07;94403.00;;;2.49;72.38
10946;BME280;5525;42.648;23.368;2023-04-07T00:32:34;94401.06;;;2.54;71.56
10946;BME280;5525;42.648;23.368;2023-04-07T00:35:00;94388.59;;;2.50;72.08
10946;BME280;5525;42.648;23.368;2023-04-07T00:37:27;94398.41;;;2.54;71.67
10946;BME280;5525;42.648;23.368;2023-04-07T00:39:54;94405.09;;;2.52;71.29
10946;BME280;5525;42.648;23.368;2023-04-07T00:42:21;94400.38;;;2.44;71.64
10946;BME280;5525;42.648;23.368;2023-04-07T00:44:48;94403.75;;;2.49;71.99
10946;BME280;5525;42.648;23.368;2023-04-07T00:47:16;94402.44;;;2.52;71.53
10946;BME280;5525;42.648;23.368;2023-04-07T00:49:43;94400.13;;;2.40;72.29
10946;BME280;5525;42.648;23.368;2023-04-07T00:52:09;94389.56;;;2.30;72.58
10946;BME280;5525;42.648;23.368;2023-04-07T00:54:38;94404.38;;;2.41;72.14
10946;BME280;5525;42.648;23.368;2023-04-07T00:57:07;94400.03;;;2.50;71.22
10946;BME280;5525;42.648;23.368;2023-04-07T00:59:33;94405.09;;;2.52;71.06
10946;BME280;5525;42.648;23.368;2023-04-07T01:02:03;94402.63;;;2.55;70.95
10946;BME280;5525;42.648;23.368;2023-04-07T01:04:37;94403.97;;;2.58;70.25
10946;BME280;5525;42.648;23.368;2023-04-07T01:07:08;94400.03;;;2.50;71.02
10946;BME280;5525;42.648;23.368;2023-04-07T01:09:39;94401.16;;;2.44;71.94
10946;BME280;5525;42.648;23.368;2023-04-07T01:12:12;94398.78;;;2.43;71.97
10946;BME280;5525;42.648;23.368;2023-04-07T01:14:46;94400.69;;;2.37;71.82
10946;BME280;5525;42.648;23.368;2023-04-07T01:17:16;94401.66;;;2.46;71.55
10946;BME280;5525;42.648;23.368;2023-04-07T01:19:49;94395.06;;;2.39;71.93
10946;BME280;5525;42.648;23.368;2023-04-07T01:22:22;94388.19;;;2.33;72.53
10946;BME280;5525;42.648;23.368;2023-04-07T01:25:16;94388.47;;;2.31;72.81
10946;BME280;5525;42.648;23.368;2023-04-07T01:27:57;94393.19;;;2.44;72.40
10946;BME280;5525;42.648;23.368;2023-04-07T01:30:28;94381.47;;;2.40;72.12
10946;BME280;5525;42.648;23.368;2023-04-07T01:32:58;94388.53;;;2.55;71.28
10946;BME280;5525;42.648;23.368;2023-04-07T01:35:26;94372.91;;;2.43;71.20
10946;BME280;5525;42.648;23.368;2023-04-07T01:37:55;94375.19;;;2.60;71.50
10946;BME280;5525;42.648;23.368;2023-04-07T01:40:23;94379.38;;;2.66;71.34
10946;BME280;5525;42.648;23.368;2023-04-07T01:42:51;94376.19;;;2.64;71.54
10946;BME280;5525;42.648;23.368;2023-04-07T01:45:19;94381.00;;;2.62;72.13
10946;BME280;5525;42.648;23.368;2023-04-07T01:47:48;94376.47;;;2.62;72.82
10946;BME280;5525;42.648;23.368;2023-04-07T01:50:15;94366.38;;;2.59;72.39
10946;BME280;5525;42.648;23.368;2023-04-07T01:52:42;94374.91;;;2.61;73.23
10946;BME280;5525;42.648;23.368;2023-04-07T01:55:09;94364.25;;;2.61;72.92
10946;BME280;5525;42.648;23.368;2023-04-07T01:57:36;94376.16;;;2.69;72.24
10946;BME280;5525;42.648;23.368;2023-04-07T02:00:03;94359.41;;;2.63;73.11
10946;BME280;5525;42.648;23.368;2023-04-07T02:02:32;94366.84;;;2.66;81.05
10946;BME280;5525;42.648;23.368;2023-04-07T02:05:05;94368.84;;;2.51;93.26
10946;BME280;5525;42.648;23.368;2023-04-07T02:07:38;94373.66;;;2.20;100.00
10946;BME280;5525;42.648;23.368;2023-04-07T02:10:10;94375.31;;;2.11;100.00
10946;BME280;5525;42.648;23.368;2023-04-07T02:12:38;94373.44;;;2.17;100.00
10946;BME280;5525;42.648;23.368;2023-04-07T02:15:08;94385.91;;;2.21;100.00
10946;BME280;5525;42.648;23.368;2023-04-07T02:17:38;94364.59;;;2.21;100.00
10946;BME280;5525;42.648;23.368;2023-04-07T02:20:09;94363.47;;;2.27;100.00
10946;BME280;5525;42.648;23.368;2023-04-07T02:22:37;94376.84;;;2.22;100.00
10946;BME280;5525;42.648;23.368;2023-04-07T02:25:20;94372.03;;;2.24;100.00
10946;BME280;5525;42.648;23.368;2023-04-07T02:27:47;94371.59;;;2.12;100.00
10946;BME280;5525;42.648;23.368;2023-04-07T02:30:14;94366.75;;;2.19;100.00
10946;BME280;5525;42.648;23.368;2023-04-07T02:32:40;94372.88;;;2.20;100.00
10946;BME280;5525;42.648;23.368;2023-04-07T02:35:09;94362.59;;;2.37;100.00
10946;BME280;5525;42.648;23.368;2023-04-07T02:37:35;94369.19;;;2.44;100.00
10946;BME280;5525;42.648;23.368;2023-04-07T02:40:02;94373.88;;;2.52;100.00
10946;BME280;5525;42.648;23.368;2023-04-07T02:42:29;94372.28;;;2.56;100.00
10946;BME280;5525;42.648;23.368;2023-04-07T02:44:56;94376.78;;;2.56;100.00
10946;BME280;5525;42.648;23.368;2023-04-07T02:47:23;94378.06;;;2.63;100.00
10946;BME280;5525;42.648;23.368;2023-04-07T02:49:50;94380.28;;;2.56;100.00
10946;BME280;5525;42.648;23.368;2023-04-07T02:52:18;94376.38;;;2.72;100.00
10946;BME280;5525;42.648;23.368;2023-04-07T02:54:45;94374.75;;;2.76;100.00
10946;BME280;5525;42.648;23.368;2023-04-07T02:57:12;94383.19;;;2.83;100.00
10946;BME280;5525;42.648;23.368;2023-04-07T02:59:39;94391.47;;;2.82;100.00
10946;BME280;5525;42.648;23.368;2023-04-07T03:02:06;94386.09;;;2.87;100.00
10946;BME280;5525;42.648;23.368;2023-04-07T03:04:32;94388.03;;;2.81;100.00
10946;BME280;5525;42.648;23.368;2023-04-07T03:06:59;94377.97;;;2.73;100.00
10946;BME280;5525;42.648;23.368;2023-04-07T03:09:27;94400.59;;;2.76;100.00
10946;BME280;5525;42.648;23.368;2023-04-07T03:11:56;94392.31;;;2.77;100.00
10946;BME280;5525;42.648;23.368;2023-04-07T03:14:23;94388.13;;;2.71;100.00
10946;BME280;5525;42.648;23.368;2023-04-07T03:16:49;94383.59;;;2.72;100.00
10946;BME280;5525;42.648;23.368;2023-04-07T03:19:16;94389.97;;;2.71;100.00
10946;BME280;5525;42.648;23.368;2023-04-07T03:21:43;94393.44;;;2.71;100.00
10946;BME280;5525;42.648;23.368;2023-04-07T03:24:09;94388.13;;;2.71;100.00
10946;BME280;5525;42.648;23.368;2023-04-07T03:26:37;94388.56;;;2.78;100.00
10946;BME280;5525;42.648;23.368;2023-04-07T03:29:04;94391.09;;;2.65;100.00
10946;BME280;5525;42.648;23.368;2023-04-07T03:31:30;94391.16;;;2.88;96.93
10946;BME280;5525;42.648;23.368;2023-04-07T03:33:57;94384.22;;;2.87;93.58
10946;BME280;5525;42.648;23.368;2023-04-07T03:36:24;94374.56;;;2.91;91.80
10946;BME280;5525;42.648;23.368;2023-04-07T03:38:52;94382.34;;;2.88;89.07
10946;BME280;5525;42.648;23.368;2023-04-07T03:41:19;94373.97;;;2.71;86.12
10946;BME280;5525;42.648;23.368;2023-04-07T03:43:47;94374.81;;;2.66;85.69
10946;BME280;5525;42.648;23.368;2023-04-07T03:46:13;94369.31;;;2.58;85.13
10946;BME280;5525;42.648;23.368;2023-04-07T03:48:40;94375.50;;;2.53;83.06
10946;BME280;5525;42.648;23.368;2023-04-07T03:51:07;94378.72;;;2.50;82.56
10946;BME280;5525;42.648;23.368;2023-04-07T03:53:33;94376.00;;;2.55;80.72
10946;BME280;5525;42.648;23.368;2023-04-07T03:56:00;94376.47;;;2.62;79.54
10946;BME280;5525;42.648;23.368;2023-04-07T03:58:27;94379.31;;;2.71;78.01
10946;BME280;5525;42.648;23.368;2023-04-07T04:00:55;94376.94;;;2.69;77.34
10946;BME280;5525;42.648;23.368;2023-04-07T04:03:22;94382.50;;;2.73;78.38
10946;BME280;5525;42.648;23.368;2023-04-07T04:05:48;94389.69;;;2.72;77.67
10946;BME280;5525;42.648;23.368;2023-04-07T04:08:15;94385.69;;;2.75;78.39
10946;BME280;5525;42.648;23.368;2023-04-07T04:10:42;94386.13;;;2.82;77.32
10946;BME280;5525;42.648;23.368;2023-04-07T04:13:08;94371.03;;;2.72;77.47
10946;BME280;5525;42.648;23.368;2023-04-07T04:15:35;94389.56;;;2.87;77.49
10946;BME280;5525;42.648;23.368;2023-04-07T04:18:03;94403.09;;;2.67;80.84
10946;BME280;5525;42.648;23.368;2023-04-07T04:20:30;94393.00;;;2.64;89.16
10946;BME280;5525;42.648;23.368;2023-04-07T04:22:57;94402.84;;;2.64;98.36
10946;BME280;5525;42.648;23.368;2023-04-07T04:25:23;94403.31;;;2.71;100.00
10946;BME280;5525;42.648;23.368;2023-04-07T04:27:50;94397.47;;;2.69;100.00
10946;BME280;5525;42.648;23.368;2023-04-07T04:30:17;94404.72;;;2.63;100.00
10946;BME280;5525;42.648;23.368;2023-04-07T04:32:43;94405.75;;;2.67;100.00
10946;BME280;5525;42.648;23.368;2023-04-07T04:35:12;94416.88;;;2.74;100.00
10946;BME280;5525;42.648;23.368;2023-04-07T04:37:38;94411.25;;;2.76;100.00
10946;BME280;5525;42.648;23.368;2023-04-07T04:40:06;94409.72;;;2.70;100.00
10946;BME280;5525;42.648;23.368;2023-04-07T04:42:33;94414.63;;;2.58;100.00
10946;BME280;5525;42.648;23.368;2023-04-07T04:45:00;94414.41;;;2.49;100.00
10946;BME280;5525;42.648;23.368;2023-04-07T04:47:27;94425.44;;;2.71;100.00
10946;BME280;5525;42.648;23.368;2023-04-07T04:49:54;94428.38;;;2.70;100.00
10946;BME280;5525;42.648;23.368;2023-04-07T04:52:22;94424.88;;;2.74;100.00
10946;BME280;5525;42.648;23.368;2023-04-07T04:54:48;94425.81;;;2.88;100.00
10946;BME280;5525;42.648;23.368;2023-04-07T04:57:15;94425.34;;;2.81;100.00
10946;BME280;5525;42.648;23.368;2023-04-07T04:59:42;94429.34;;;2.79;100.00
10946;BME280;5525;42.648;23.368;2023-04-07T05:02:08;94426.97;;;2.77;100.00
10946;BME280;5525;42.648;23.368;2023-04-07T05:04:35;94434.94;;;2.82;100.00
10946;BME280;5525;42.648;23.368;2023-04-07T05:07:02;94435.34;;;2.94;100.00
10946;BME280;5525;42.648;23.368;2023-04-07T05:09:30;94438.63;;;2.86;99.96
10946;BME280;5525;42.648;23.368;2023-04-07T05:11:57;94432.53;;;2.81;96.16
10946;BME280;5525;42.648;23.368;2023-04-07T05:14:24;94443.78;;;2.78;97.20
10946;BME280;5525;42.648;23.368;2023-04-07T05:16:50;94441.00;;;2.88;97.73
10946;BME280;5525;42.648;23.368;2023-04-07T05:19:18;94451.88;;;2.96;98.87
10946;BME280;5525;42.648;23.368;2023-04-07T05:21:45;94455.53;;;3.00;99.77
10946;BME280;5525;42.648;23.368;2023-04-07T05:24:11;94445.44;;;2.97;100.00
10946;BME280;5525;42.648;23.368;2023-04-07T05:26:40;94453.69;;;3.24;100.00
10946;BME280;5525;42.648;23.368;2023-04-07T05:29:06;94452.16;;;3.42;100.00
10946;BME280;5525;42.648;23.368;2023-04-07T05:31:33;94448.19;;;3.82;100.00
10946;BME280;5525;42.648;23.368;2023-04-07T05:34:01;94453.72;;;4.09;98.87
10946;BME280;5525;42.648;23.368;2023-04-07T05:36:28;94457.03;;;4.56;94.70
10946;BME280;5525;42.648;23.368;2023-04-07T05:38:55;94451.72;;;5.02;91.20
10946;BME280;5525;42.648;23.368;2023-04-07T05:41:22;94456.31;;;5.15;86.59
10946;BME280;5525;42.648;23.368;2023-04-07T05:43:50;94445.13;;;5.27;85.99
10946;BME280;5525;42.648;23.368;2023-04-07T05:46:17;94451.28;;;5.54;84.10
10946;BME280;5525;42.648;23.368;2023-04-07T05:48:43;94439.13;;;5.89;80.84
10946;BME280;5525;42.648;23.368;2023-04-07T05:51:10;94447.00;;;6.21;78.68
10946;BME280;5525;42.648;23.368;2023-04-07T05:53:37;94448.72;;;6.39;73.90
10946;BME280;5525;42.648;23.368;2023-04-07T05:56:04;94444.78;;;6.36;72.42
10946;BME280;5525;42.648;23.368;2023-04-07T05:58:30;94447.75;;;6.57;71.45
10946;BME280;5525;42.648;23.368;2023-04-07T06:00:58;94433.19;;;6.49;70.51
10946;BME280;5525;42.648;23.368;2023-04-07T06:03:25;94448.16;;;6.64;70.51
10946;BME280;5525;42.648;23.368;2023-04-07T06:05:52;94445.03;;;6.48;70.01
10946;BME280;5525;42.648;23.368;2023-04-07T06:08:18;94442.19;;;6.53;69.52
10946;BME280;5525;42.648;23.368;2023-04-07T06:10:45;94444.31;;;6.43;69.60
10946;BME280;5525;42.648;23.368;2023-04-07T06:13:12;94439.47;;;6.45;69.66
10946;BME280;5525;42.648;23.368;2023-04-07T06:15:39;94450.19;;;6.45;69.54
10946;BME280;5525;42.648;23.368;2023-04-07T06:18:07;94444.88;;;6.31;69.16
10946;BME280;5525;42.648;23.368;2023-04-07T06:20:33;94447.16;;;6.38;70.26
10946;BME280;5525;42.648;23.368;2023-04-07T06:23:01;94451.97;;;6.49;71.05
10946;BME280;5525;42.648;23.368;2023-04-07T06:25:29;94443.38;;;6.83;69.82
10946;BME280;5525;42.648;23.368;2023-04-07T06:27:55;94444.41;;;6.96;68.50
10946;BME280;5525;42.648;23.368;2023-04-07T06:30:22;94442.84;;;7.56;67.45
10946;BME280;5525;42.648;23.368;2023-04-07T06:32:49;94444.41;;;9.49;61.70
10946;BME280;5525;42.648;23.368;2023-04-07T06:35:17;94442.78;;;10.73;53.26
10946;BME280;5525;42.648;23.368;2023-04-07T06:37:44;94426.50;;;12.91;47.15
10946;BME280;5525;42.648;23.368;2023-04-07T06:40:10;94425.00;;;15.69;40.29
10946;BME280;5525;42.648;23.368;2023-04-07T06:42:37;94435.06;;;16.81;36.49
10946;BME280;5525;42.648;23.368;2023-04-07T06:45:05;94431.56;;;18.09;33.48
10946;BME280;5525;42.648;23.368;2023-04-07T06:47:31;94430.69;;;19.82;31.03
10946;BME280;5525;42.648;23.368;2023-04-07T06:49:58;94437.81;;;21.27;28.14
10946;BME280;5525;42.648;23.368;2023-04-07T06:52:26;94435.41;;;21.43;26.61
10946;BME280;5525;42.648;23.368;2023-04-07T06:54:53;94441.47;;;21.96;25.37
10946;BME280;5525;42.648;23.368;2023-04-07T06:57:20;94446.16;;;23.86;23.42
10946;BME280;5525;42.648;23.368;2023-04-07T06:59:47;94450.78;;;22.23;24.83
10946;BME280;5525;42.648;23.368;2023-04-07T07:02:14;94452.25;;;19.05;27.60
10946;BME280;5525;42.648;23.368;2023-04-07T07:04:40;94435.97;;;21.96;25.72
10946;BME280;5525;42.648;23.368;2023-04-07T07:07:07;94438.94;;;23.25;23.73
10946;BME280;5525;42.648;23.368;2023-04-07T07:09:35;94450.94;;;26.20;21.71
10946;BME280;5525;42.648;23.368;2023-04-07T07:12:02;94459.38;;;26.48;20.76
10946;BME280;5525;42.648;23.368;2023-04-07T07:14:30;94462.47;;;27.95;18.93
10946;BME280;5525;42.648;23.368;2023-04-07T07:16:57;94472.00;;;26.14;19.54
10946;BME280;5525;42.648;23.368;2023-04-07T07:19:23;94466.22;;;24.47;20.73
10946;BME280;5525;42.648;23.368;2023-04-07T07:21:50;94466.66;;;24.72;20.59
10946;BME280;5525;42.648;23.368;2023-04-07T07:24:17;94458.81;;;24.40;20.49
10946;BME280;5525;42.648;23.368;2023-04-07T07:26:45;94457.03;;;25.92;19.02
10946;BME280;5525;42.648;23.368;2023-04-07T07:29:11;94477.84;;;25.11;19.02
10946;BME280;5525;42.648;23.368;2023-04-07T07:31:38;94465.13;;;22.48;21.18
10946;BME280;5525;42.648;23.368;2023-04-07T07:34:05;94478.50;;;21.74;21.57
10946;BME280;5525;42.648;23.368;2023-04-07T07:36:32;94467.13;;;18.16;23.38
10946;BME280;5525;42.648;23.368;2023-04-07T07:38:59;94473.28;;;15.72;26.48
10946;BME280;5525;42.648;23.368;2023-04-07T07:41:25;94479.06;;;15.89;26.55
10946;BME280;5525;42.648;23.368;2023-04-07T07:43:53;94484.03;;;14.57;27.63
10946;BME280;5525;42.648;23.368;2023-04-07T07:46:20;94477.16;;;12.51;30.79
10946;BME280;5525;42.648;23.368;2023-04-07T07:48:48;94473.44;;;15.79;27.15
10946;BME280;5525;42.648;23.368;2023-04-07T07:51:15;94482.63;;;14.98;27.46
10946;BME280;5525;42.648;23.368;2023-04-07T07:53:42;94492.19;;;13.12;29.18
10946;BME280;5525;42.648;23.368;2023-04-07T07:56:09;94485.94;;;12.00;30.91
10946;BME280;5525;42.648;23.368;2023-04-07T07:58:36;94447.47;;;13.06;30.26
10946;BME280;5525;42.648;23.368;2023-04-07T08:01:04;94490.88;;;11.98;31.17
10946;BME280;5525;42.648;23.368;2023-04-07T08:03:31;94486.41;;;11.37;32.65
10946;BME280;5525;42.648;23.368;2023-04-07T08:05:57;94481.06;;;11.81;31.91
10946;BME280;5525;42.648;23.368;2023-04-07T08:08:25;94475.34;;;14.05;29.26
10946;BME280;5525;42.648;23.368;2023-04-07T08:10:52;94483.06;;;14.03;29.39
10946;BME280;5525;42.648;23.368;2023-04-07T08:13:18;94487.34;;;13.06;30.77
10946;BME280;5525;42.648;23.368;2023-04-07T08:15:45;94478.94;;;11.54;32.19
10946;BME280;5525;42.648;23.368;2023-04-07T08:18:13;94498.03;;;11.37;33.42
10946;BME280;5525;42.648;23.368;2023-04-07T08:20:40;94482.53;;;11.58;32.85
10946;BME280;5525;42.648;23.368;2023-04-07T08:23:06;94472.84;;;12.38;31.71
10946;BME280;5525;42.648;23.368;2023-04-07T08:25:33;94475.63;;;12.78;32.27
10946;BME280;5525;42.648;23.368;2023-04-07T08:28:00;94483.03;;;13.88;30.66
10946;BME280;5525;42.648;23.368;2023-04-07T08:30:27;94487.00;;;12.95;30.43
10946;BME280;5525;42.648;23.368;2023-04-07T08:32:54;94483.75;;;12.78;31.74
10946;BME280;5525;42.648;23.368;2023-04-07T08:35:23;94481.22;;;12.57;30.90
10946;BME280;5525;42.648;23.368;2023-04-07T08:37:50;94476.25;;;13.66;29.99
10946;BME280;5525;42.648;23.368;2023-04-07T08:40:16;94468.91;;;16.31;27.52
10946;BME280;5525;42.648;23.368;2023-04-07T08:42:46;94468.94;;;15.48;27.93
10946;BME280;5525;42.648;23.368;2023-04-07T08:45:15;94472.19;;;15.00;28.73
10946;BME280;5525;42.648;23.368;2023-04-07T08:47:43;94467.06;;;15.14;28.63
10946;BME280;5525;42.648;23.368;2023-04-07T08:50:13;94464.06;;;15.38;28.57
10946;BME280;5525;42.648;23.368;2023-04-07T08:52:45;94461.50;;;15.87;27.55
10946;BME280;5525;42.648;23.368;2023-04-07T08:55:14;94478.06;;;12.19;31.38
10946;BME280;5525;42.648;23.368;2023-04-07T08:57:41;94481.19;;;12.33;32.25
10946;BME280;5525;42.648;23.368;2023-04-07T09:00:08;94473.13;;;13.80;30.10
10946;BME280;5525;42.648;23.368;2023-04-07T09:02:37;94477.06;;;14.75;29.15
10946;BME280;5525;42.648;23.368;2023-04-07T09:05:06;94465.63;;;14.51;29.48
10946;BME280;5525;42.648;23.368;2023-04-07T09:07:34;94472.41;;;15.45;27.91
10946;BME280;5525;42.648;23.368;2023-04-07T09:10:03;94466.59;;;14.27;28.61
10946;BME280;5525;42.648;23.368;2023-04-07T09:12:30;94464.97;;;13.80;30.08
10946;BME280;5525;42.648;23.368;2023-04-07T09:14:58;94455.09;;;15.18;28.35
10946;BME280;5525;42.648;23.368;2023-04-07T09:17:25;94466.84;;;14.53;29.14
10946;BME280;5525;42.648;23.368;2023-04-07T09:19:52;94457.09;;;16.69;27.66
10946;BME280;5525;42.648;23.368;2023-04-07T09:22:34;94477.09;;;17.06;25.48
10946;BME280;5525;42.648;23.368;2023-04-07T09:25:14;94468.97;;;17.39;25.33
10946;BME280;5525;42.648;23.368;2023-04-07T09:27:53;94466.69;;;14.46;28.39
10946;BME280;5525;42.648;23.368;2023-04-07T09:30:20;94471.13;;;13.92;28.99
10946;BME280;5525;42.648;23.368;2023-04-07T09:32:47;94470.44;;;14.57;28.61
10946;BME280;5525;42.648;23.368;2023-04-07T09:35:14;94466.03;;;13.75;29.57
10946;BME280;5525;42.648;23.368;2023-04-07T09:37:41;94467.09;;;13.43;30.92
10946;BME280;5525;42.648;23.368;2023-04-07T09:40:10;94454.59;;;12.35;31.93
10946;BME280;5525;42.648;23.368;2023-04-07T09:42:44;94484.16;;;12.28;31.92
10946;BME280;5525;42.648;23.368;2023-04-07T09:45:10;94477.38;;;12.34;32.32
10946;BME280;5525;42.648;23.368;2023-04-07T09:47:37;94488.88;;;11.62;33.07
10946;BME280;5525;42.648;23.368;2023-04-07T09:50:05;94485.59;;;11.24;34.02
10946;BME280;5525;42.648;23.368;2023-04-07T09:52:48;94486.13;;;10.56;35.53
10946;BME280;5525;42.648;23.368;2023-04-07T09:55:18;94490.31;;;10.16;36.22
10946;BME280;5525;42.648;23.368;2023-04-07T09:57:47;94487.31;;;10.67;36.05
10946;BME280;5525;42.648;23.368;2023-04-07T10:00:15;94495.44;;;10.88;36.13
10946;BME280;5525;42.648;23.368;2023-04-07T10:02:42;94484.09;;;11.47;35.55
10946;BME280;5525;42.648;23.368;2023-04-07T10:05:09;94491.19;;;13.88;32.68
10946;BME280;5525;42.648;23.368;2023-04-07T10:07:36;94481.31;;;15.46;29.51
10946;BME280;5525;42.648;23.368;2023-04-07T10:10:03;94485.09;;;14.53;30.11
10946;BME280;5525;42.648;23.368;2023-04-07T10:12:34;94483.25;;;14.26;30.74
10946;BME280;5525;42.648;23.368;2023-04-07T10:15:03;94483.97;;;13.80;30.96
10946;BME280;5525;42.648;23.368;2023-04-07T10:17:30;94480.44;;;13.48;31.18
10946;BME280;5525;42.648;23.368;2023-04-07T10:19:58;94495.84;;;12.56;32.50
10946;BME280;5525;42.648;23.368;2023-04-07T10:22:27;94486.59;;;12.81;32.39
10946;BME280;5525;42.648;23.368;2023-04-07T10:24:58;94479.44;;;12.89;32.54
10946;BME280;5525;42.648;23.368;2023-04-07T10:27:30;94482.97;;;11.16;34.38
10946;BME280;5525;42.648;23.368;2023-04-07T10:29:59;94476.41;;;11.37;35.05
10946;BME280;5525;42.648;23.368;2023-04-07T10:32:28;94486.53;;;10.87;36.32
10946;BME280;5525;42.648;23.368;2023-04-07T10:34:55;94485.84;;;10.49;36.07
10946;BME280;5525;42.648;23.368;2023-04-07T10:37:23;94490.59;;;10.52;36.63
10946;BME280;5525;42.648;23.368;2023-04-07T10:39:51;94490.59;;;10.93;36.31
10946;BME280;5525;42.648;23.368;2023-04-07T10:42:45;94497.47;;;10.41;36.94
10946;BME280;5525;42.648;23.368;2023-04-07T10:45:14;94494.03;;;10.61;37.14
10946;BME280;5525;42.648;23.368;2023-04-07T10:50:40;94494.88;;;10.24;37.90
10946;BME280;5525;42.648;23.368;2023-04-07T10:53:08;94487.47;;;10.42;37.79
10946;BME280;5525;42.648;23.368;2023-04-07T10:55:36;94492.06;;;10.12;38.76
10946;BME280;5525;42.648;23.368;2023-04-07T10:58:14;94493.03;;;10.45;38.14
10946;BME280;5525;42.648;23.368;2023-04-07T11:01:18;94509.94;;;11.04;37.31
10946;BME280;5525;42.648;23.368;2023-04-07T11:03:57;94504.13;;;10.73;37.89
10946;BME280;5525;42.648;23.368;2023-04-07T11:06:24;94510.44;;;9.72;41.30
10946;BME280;5525;42.648;23.368;2023-04-07T11:08:52;94497.06;;;9.84;41.06
10946;BME280;5525;42.648;23.368;2023-04-07T11:11:34;94504.28;;;9.63;42.08
10946;BME280;5525;42.648;23.368;2023-04-07T11:14:01;94506.66;;;9.65;41.96
10946;BME280;5525;42.648;23.368;2023-04-07T11:16:36;94515.41;;;9.62;42.77
10946;BME280;5525;42.648;23.368;2023-04-07T11:19:03;94510.41;;;9.89;42.47
10946;BME280;5525;42.648;23.368;2023-04-07T11:21:29;94494.94;;;10.45;41.05
10946;BME280;5525;42.648;23.368;2023-04-07T11:23:56;94509.47;;;10.23;41.40
10946;BME280;5525;42.648;23.368;2023-04-07T11:26:23;94509.97;;;10.25;42.28
10946;BME280;5525;42.648;23.368;2023-04-07T11:28:51;94505.91;;;10.40;41.90
10946;BME280;5525;42.648;23.368;2023-04-07T11:31:21;94500.19;;;11.11;41.32
10946;BME280;5525;42.648;23.368;2023-04-07T11:33:52;94510.78;;;11.49;40.26
10946;BME280;5525;42.648;23.368;2023-04-07T11:36:28;94510.03;;;11.28;39.52
10946;BME280;5525;42.648;23.368;2023-04-07T11:38:55;94508.25;;;10.70;41.63
10946;BME280;5525;42.648;23.368;2023-04-07T11:41:24;94510.59;;;11.01;40.95
10946;BME280;5525;42.648;23.368;2023-04-07T11:44:03;94510.19;;;11.11;40.51
10946;BME280;5525;42.648;23.368;2023-04-07T11:46:30;94512.38;;;11.17;40.17
10946;BME280;5525;42.648;23.368;2023-04-07T11:49:09;94501.16;;;11.07;39.89
10946;BME280;5525;42.648;23.368;2023-04-07T11:51:36;94503.84;;;11.60;40.46
10946;BME280;5525;42.648;23.368;2023-04-07T11:54:02;94492.13;;;11.03;41.13
10946;BME280;5525;42.648;23.368;2023-04-07T11:56:29;94507.09;;;11.21;41.36
10946;BME280;5525;42.648;23.368;2023-04-07T11:59:06;94499.09;;;11.57;40.59
10946;BME280;5525;42.648;23.368;2023-04-07T12:01:39;94500.66;;;11.46;40.62
10946;BME280;5525;42.648;23.368;2023-04-07T12:04:11;94502.66;;;11.16;40.68
10946;BME280;5525;42.648;23.368;2023-04-07T12:06:38;94494.09;;;10.94;41.39
10946;BME280;5525;42.648;23.368;2023-04-07T12:09:07;94500.56;;;11.87;40.79
10946;BME280;5525;42.648;23.368;2023-04-07T12:11:35;94495.59;;;11.56;40.90
10946;BME280;5525;42.648;23.368;2023-04-07T12:14:01;94506.25;;;12.30;40.22
10946;BME280;5525;42.648;23.368;2023-04-07T12:16:29;94501.06;;;12.61;39.45
10946;BME280;5525;42.648;23.368;2023-04-07T12:18:56;94496.63;;;13.60;38.88
10946;BME280;5525;42.648;23.368;2023-04-07T12:21:24;94500.22;;;13.09;38.10
10946;BME280;5525;42.648;23.368;2023-04-07T12:23:51;94503.75;;;12.73;38.93
10946;BME280;5525;42.648;23.368;2023-04-07T12:26:18;94502.97;;;12.25;39.84
10946;BME280;5525;42.648;23.368;2023-04-07T12:28:46;94506.50;;;12.25;39.99
10946;BME280;5525;42.648;23.368;2023-04-07T12:31:13;94505.94;;;12.56;39.35
10946;BME280;5525;42.648;23.368;2023-04-07T12:33:40;94506.44;;;12.73;39.87
10946;BME280;5525;42.648;23.368;2023-04-07T12:36:06;94498.69;;;11.67;40.24
10946;BME280;5525;42.648;23.368;2023-04-07T12:38:34;94508.63;;;11.42;41.32
10946;BME280;5525;42.648;23.368;2023-04-07T12:41:01;94501.00;;;11.77;41.15
10946;BME280;5525;42.648;23.368;2023-04-07T12:43:28;94501.28;;;11.10;41.48
10946;BME280;5525;42.648;23.368;2023-04-07T12:45:55;94510.13;;;11.84;40.61
10946;BME280;5525;42.648;23.368;2023-04-07T12:48:22;94515.56;;;11.97;41.01
10946;BME280;5525;42.648;23.368;2023-04-07T12:50:49;94510.34;;;11.47;41.52
10946;BME280;5525;42.648;23.368;2023-04-07T12:53:16;94505.28;;;11.45;41.59
10946;BME280;5525;42.648;23.368;2023-04-07T12:55:46;94504.19;;;11.58;41.66
10946;BME280;5525;42.648;23.368;2023-04-07T12:58:13;94497.75;;;11.51;41.27
10946;BME280;5525;42.648;23.368;2023-04-07T13:00:39;94510.03;;;11.28;42.30
10946;BME280;5525;42.648;23.368;2023-04-07T13:03:07;94509.78;;;11.53;41.64
10946;BME280;5525;42.648;23.368;2023-04-07T13:05:35;94521.13;;;11.14;41.98
10946;BME280;5525;42.648;23.368;2023-04-07T13:08:02;94515.56;;;10.70;42.10
10946;BME280;5525;42.648;23.368;2023-04-07T13:10:29;94517.63;;;10.06;44.26
10946;BME280;5525;42.648;23.368;2023-04-07T13:12:57;94516.69;;;10.02;44.32